createdAt,value
2022-08-21T00:00:32.892Z,4.85
2022-08-21T00:03:09.048Z,4.55
2022-08-21T00:05:45.658Z,4.68
2022-08-21T00:08:20.470Z,4.35
2022-08-21T00:10:54.498Z,4.68
2022-08-21T00:13:28.793Z,4.55
2022-08-21T00:16:04.785Z,4.68
2022-08-21T00:18:38.811Z,4.18
2022-08-21T00:21:14.297Z,4.10
2022-08-21T00:23:48.407Z,4.32
2022-08-21T00:26:22.471Z,4.03
2022-08-21T00:28:56.484Z,4.40
2022-08-21T00:31:34.328Z,4.50
2022-08-21T00:34:09.071Z,4.70
2022-08-21T00:36:43.112Z,4.63
2022-08-21T00:39:17.198Z,5.15
2022-08-21T00:41:51.318Z,4.93
2022-08-21T00:44:25.369Z,4.40
2022-08-21T00:47:00.939Z,4.88
2022-08-21T00:49:34.956Z,4.22
2022-08-21T00:52:13.161Z,4.22
2022-08-21T00:54:48.042Z,4.38
2022-08-21T00:57:26.275Z,4.60
2022-08-21T01:00:03.812Z,4.18
2022-08-21T01:02:40.877Z,4.43
2022-08-21T01:05:15.581Z,4.00
2022-08-21T01:07:49.786Z,4.50
2022-08-21T01:10:24.683Z,4.43
2022-08-21T01:12:59.990Z,4.38
2022-08-21T01:15:37.974Z,4.13
2022-08-21T01:18:15.929Z,4.57
2022-08-21T01:21:06.715Z,4.43
2022-08-21T01:23:43.348Z,4.55
2022-08-21T01:26:20.361Z,4.57
2022-08-21T01:28:59.544Z,4.50
2022-08-21T01:31:34.188Z,4.07
2022-08-21T01:34:09.242Z,4.25
2022-08-21T01:36:48.215Z,4.25
2022-08-21T01:39:22.388Z,4.70
2022-08-21T01:41:56.488Z,4.45
2022-08-21T01:44:30.884Z,4.20
2022-08-21T01:47:08.697Z,4.38
2022-08-21T01:49:44.007Z,4.15
2022-08-21T01:52:19.709Z,3.78
2022-08-21T01:54:55.580Z,4.20
2022-08-21T01:57:30.151Z,4.40
2022-08-21T02:00:06.534Z,4.65
2022-08-21T02:02:45.938Z,4.10
2022-08-21T02:05:20.830Z,4.70
2022-08-21T02:07:57.245Z,4.40
2022-08-21T02:10:33.983Z,3.83
2022-08-21T02:13:08.475Z,4.43
2022-08-21T02:15:47.500Z,3.72
2022-08-21T02:18:21.649Z,4.25
2022-08-21T02:20:56.682Z,4.50
2022-08-21T02:23:32.319Z,4.10
2022-08-21T02:26:08.944Z,3.90
2022-08-21T02:28:43.389Z,3.67
2022-08-21T02:31:17.678Z,3.38
2022-08-21T02:33:51.637Z,4.10
2022-08-21T02:36:25.824Z,4.20
2022-08-21T02:39:01.399Z,4.18
2022-08-21T02:41:37.716Z,4.18
2022-08-21T02:44:11.755Z,4.03
2022-08-21T02:46:45.731Z,3.58
2022-08-21T02:49:19.812Z,5.00
2022-08-21T02:51:53.875Z,4.22
2022-08-21T02:54:29.388Z,3.85
2022-08-21T02:57:03.538Z,3.67
2022-08-21T02:59:37.702Z,4.13
2022-08-21T03:02:12.696Z,4.30
2022-08-21T03:04:49.865Z,4.22
2022-08-21T03:07:24.042Z,3.78
2022-08-21T03:09:59.654Z,4.15
2022-08-21T03:12:37.245Z,3.92
2022-08-21T03:15:18.412Z,3.80
2022-08-21T03:17:54.185Z,4.07
2022-08-21T03:20:30.605Z,4.30
2022-08-21T03:23:12.531Z,4.40
2022-08-21T03:25:50.611Z,3.85
2022-08-21T03:28:24.761Z,4.72
2022-08-21T03:30:58.830Z,3.97
2022-08-21T03:33:33.238Z,4.47
2022-08-21T03:36:10.053Z,4.18
2022-08-21T03:38:44.835Z,4.13
2022-08-21T03:41:20.352Z,3.72
2022-08-21T03:43:54.827Z,3.97
2022-08-21T03:46:28.867Z,4.03
2022-08-21T03:49:05.058Z,3.80
2022-08-21T03:51:39.170Z,3.85
2022-08-21T03:54:13.338Z,3.97
2022-08-21T03:56:50.648Z,4.03
2022-08-21T03:59:25.530Z,3.78
2022-08-21T04:02:03.246Z,3.80
2022-08-21T04:04:37.437Z,4.47
2022-08-21T04:07:11.393Z,3.85
2022-08-21T04:09:47.618Z,4.25
2022-08-21T04:12:25.154Z,3.63
2022-08-21T04:14:59.348Z,4.22
2022-08-21T04:17:34.378Z,4.10
2022-08-21T04:20:09.130Z,3.75
2022-08-21T04:22:43.184Z,3.85
2022-08-21T04:25:18.659Z,3.72
2022-08-21T04:27:56.696Z,3.30
2022-08-21T04:30:30.764Z,3.72
2022-08-21T04:33:05.136Z,4.65
2022-08-21T04:35:39.239Z,4.65
2022-08-21T04:38:13.519Z,4.13
2022-08-21T04:40:47.916Z,3.92
2022-08-21T04:43:24.569Z,3.42
2022-08-21T04:45:58.773Z,3.70
2022-08-21T04:48:34.070Z,4.07
2022-08-21T04:51:12.635Z,3.97
2022-08-21T04:53:49.964Z,3.75
2022-08-21T04:56:38.256Z,3.65
2022-08-21T04:59:18.247Z,4.15
2022-08-21T05:01:55.344Z,4.10
2022-08-21T05:04:38.388Z,3.85
2022-08-21T05:07:18.666Z,4.13
2022-08-21T05:10:13.800Z,3.55
2022-08-21T05:12:48.234Z,4.00
2022-08-21T05:15:23.867Z,3.72
2022-08-21T05:18:00.647Z,3.53
2022-08-21T05:20:36.715Z,3.75
2022-08-21T05:23:13.186Z,3.88
2022-08-21T05:25:47.356Z,3.85
2022-08-21T05:28:26.856Z,3.80
2022-08-21T05:31:02.414Z,3.50
2022-08-21T05:33:36.542Z,4.38
2022-08-21T05:36:14.396Z,4.15
2022-08-21T05:38:48.527Z,3.97
2022-08-21T05:41:22.762Z,4.10
2022-08-21T05:43:56.755Z,4.00
2022-08-21T05:46:32.297Z,3.75
2022-08-21T05:49:06.384Z,4.05
2022-08-21T05:51:42.365Z,3.50
2022-08-21T05:54:16.435Z,3.90
2022-08-21T05:56:52.847Z,3.97
2022-08-21T05:59:27.014Z,3.60
2022-08-21T06:02:05.815Z,3.72
2022-08-21T06:04:40.594Z,3.53
2022-08-21T06:07:16.487Z,3.47
2022-08-21T06:09:51.026Z,3.67
2022-08-21T06:12:25.348Z,3.83
2022-08-21T06:14:59.403Z,3.65
2022-08-21T06:17:34.924Z,3.72
2022-08-21T06:20:10.271Z,3.45
2022-08-21T06:22:44.317Z,4.20
2022-08-21T06:25:19.602Z,3.95
2022-08-21T06:27:53.690Z,3.40
2022-08-21T06:30:27.679Z,3.97
2022-08-21T06:33:03.523Z,3.78
2022-08-21T06:35:41.492Z,3.72
2022-08-21T06:38:15.747Z,3.63
2022-08-21T06:40:49.815Z,4.13
2022-08-21T06:43:23.967Z,3.38
2022-08-21T06:46:12.533Z,3.67
2022-08-21T06:48:48.027Z,3.58
2022-08-21T06:51:22.109Z,3.70
2022-08-21T06:53:56.402Z,3.45
2022-08-21T06:56:34.414Z,3.67
2022-08-21T06:59:08.691Z,3.30
2022-08-21T07:01:42.806Z,3.80
2022-08-21T07:04:18.282Z,3.83
2022-08-21T07:06:52.249Z,3.28
2022-08-21T07:09:26.277Z,4.15
2022-08-21T07:12:00.254Z,3.28
2022-08-21T07:14:34.569Z,3.47
2022-08-21T07:17:08.536Z,2.92
2022-08-21T07:19:43.875Z,3.70
2022-08-21T07:22:20.097Z,3.40
2022-08-21T07:24:54.232Z,3.72
2022-08-21T07:27:28.540Z,3.03
2022-08-21T07:30:02.577Z,3.83
2022-08-21T07:32:36.663Z,3.75
2022-08-21T07:35:12.557Z,3.58
2022-08-21T07:37:46.878Z,3.08
2022-08-21T07:40:21.074Z,2.70
2022-08-21T07:42:55.656Z,3.20
2022-08-21T07:45:30.669Z,3.40
2022-08-21T07:48:04.999Z,3.47
2022-08-21T07:50:40.699Z,3.50
2022-08-21T07:53:14.643Z,3.53
2022-08-21T07:55:48.566Z,3.72
2022-08-21T07:58:22.478Z,3.47
2022-08-21T08:00:56.472Z,3.80
2022-08-21T08:03:30.493Z,3.17
2022-08-21T08:06:06.253Z,3.40
2022-08-21T08:08:41.899Z,3.40
2022-08-21T08:11:17.323Z,3.33
2022-08-21T08:13:53.519Z,3.03
2022-08-21T08:16:27.557Z,3.17
2022-08-21T08:19:01.554Z,3.70
2022-08-21T08:21:38.675Z,3.15
2022-08-21T08:24:19.387Z,3.40
2022-08-21T08:26:55.149Z,2.67
2022-08-21T08:29:29.118Z,2.85
2022-08-21T08:32:04.243Z,3.22
2022-08-21T08:34:39.794Z,3.90
2022-08-21T08:37:15.168Z,2.90
2022-08-21T08:39:50.517Z,2.75
2022-08-21T08:42:32.943Z,3.00
2022-08-21T08:45:10.992Z,2.97
2022-08-21T08:47:49.586Z,3.55
2022-08-21T08:50:29.134Z,3.15
2022-08-21T08:53:08.137Z,2.78
2022-08-21T08:55:44.807Z,3.13
2022-08-21T08:58:24.563Z,3.08
2022-08-21T09:00:59.521Z,3.42
2022-08-21T09:03:33.597Z,3.33
2022-08-21T09:06:13.376Z,2.80
2022-08-21T09:08:56.565Z,3.17
2022-08-21T09:11:35.447Z,2.80
2022-08-21T09:14:19.271Z,3.10
2022-08-21T09:17:04.796Z,3.03
2022-08-21T09:19:55.484Z,3.17
2022-08-21T09:22:40.739Z,2.72
2022-08-21T09:25:24.015Z,2.97
2022-08-21T09:27:58.320Z,2.78
2022-08-21T09:30:34.594Z,3.28
2022-08-21T09:33:08.626Z,3.15
2022-08-21T09:35:52.663Z,3.22
2022-08-21T09:38:33.237Z,2.95
2022-08-21T09:41:11.572Z,3.00
2022-08-21T09:43:55.873Z,3.28
2022-08-21T09:46:30.070Z,2.70
2022-08-21T09:49:06.848Z,2.97
2022-08-21T09:51:54.207Z,3.58
2022-08-21T09:54:32.337Z,2.47
2022-08-21T09:57:39.133Z,3.28
2022-08-21T10:00:26.610Z,3.03
2022-08-21T10:03:12.544Z,3.17
2022-08-21T10:05:55.626Z,2.63
2022-08-21T10:08:31.140Z,2.60
2022-08-21T10:11:08.121Z,2.70
2022-08-21T10:13:56.276Z,3.33
2022-08-21T10:16:39.982Z,3.20
2022-08-21T10:19:23.578Z,2.80
2022-08-21T10:22:05.100Z,3.15
2022-08-21T10:24:50.336Z,2.85
2022-08-21T10:27:33.630Z,2.75
2022-08-21T10:30:14.168Z,2.65
2022-08-21T10:33:13.352Z,3.10
2022-08-21T10:35:53.491Z,3.30
2022-08-21T10:39:07.441Z,3.22
2022-08-21T10:42:05.866Z,2.92
2022-08-21T10:44:50.767Z,3.00
2022-08-21T10:47:36.358Z,3.13
2022-08-21T10:50:18.846Z,3.20
2022-08-21T10:53:03.652Z,3.05
2022-08-21T10:55:43.317Z,3.10
2022-08-21T10:58:26.659Z,2.78
2022-08-21T11:01:09.983Z,2.88
2022-08-21T11:03:49.533Z,2.70
2022-08-21T11:06:26.364Z,2.80
2022-08-21T11:09:05.733Z,3.00
2022-08-21T11:11:47.084Z,2.88
2022-08-21T11:14:41.569Z,2.33
2022-08-21T11:17:30.016Z,3.58
2022-08-21T11:20:12.314Z,2.75
2022-08-21T11:22:55.012Z,2.65
2022-08-21T11:25:37.051Z,2.67
2022-08-21T11:28:17.987Z,2.70
2022-08-21T11:31:02.534Z,2.88
2022-08-21T11:33:53.292Z,2.83
2022-08-21T11:36:38.949Z,2.53
2022-08-21T11:39:23.716Z,3.10
2022-08-21T11:42:15.659Z,3.05
2022-08-21T11:44:58.505Z,2.67
2022-08-21T11:47:43.845Z,3.03
2022-08-21T11:50:34.296Z,2.58
2022-08-21T11:53:16.895Z,3.20
2022-08-21T11:55:55.329Z,2.70
2022-08-21T11:58:34.874Z,2.55
2022-08-21T12:01:13.193Z,2.50
2022-08-21T12:03:57.699Z,2.80
2022-08-21T12:06:34.541Z,2.70
2022-08-21T12:09:11.856Z,2.95
2022-08-21T12:11:51.349Z,2.75
2022-08-21T12:14:26.698Z,3.08
2022-08-21T12:17:08.884Z,2.40
2022-08-21T12:19:46.679Z,2.67
2022-08-21T12:22:20.696Z,2.75
2022-08-21T12:25:08.761Z,2.53
2022-08-21T12:27:48.618Z,2.42
2022-08-21T12:30:35.019Z,2.53
2022-08-21T12:33:22.785Z,3.20
2022-08-21T12:36:07.333Z,2.17
2022-08-21T12:38:49.930Z,2.67
2022-08-21T12:41:31.102Z,2.75
2022-08-21T12:44:11.192Z,2.53
2022-08-21T12:46:49.474Z,2.92
2022-08-21T12:49:29.683Z,2.50
2022-08-21T12:52:11.494Z,2.55
2022-08-21T12:54:46.979Z,2.50
2022-08-21T12:57:26.001Z,2.72
2022-08-21T13:00:07.757Z,2.30
2022-08-21T13:02:48.345Z,2.53
2022-08-21T13:05:33.053Z,2.58
2022-08-21T13:08:07.872Z,2.80
2022-08-21T13:10:51.499Z,2.45
2022-08-21T13:13:29.060Z,2.50
2022-08-21T13:16:06.837Z,2.80
2022-08-21T13:18:55.504Z,2.78
2022-08-21T13:21:32.764Z,2.40
2022-08-21T13:24:41.252Z,2.83
2022-08-21T13:27:26.890Z,3.10
2022-08-21T13:30:08.620Z,2.55
2022-08-21T13:32:45.406Z,2.40
2022-08-21T13:35:22.954Z,2.30
2022-08-21T13:37:57.746Z,2.15
2022-08-21T13:40:41.068Z,2.47
2022-08-21T13:43:18.365Z,2.58
2022-08-21T13:45:57.878Z,2.47
2022-08-21T13:48:36.057Z,2.35
2022-08-21T13:51:12.073Z,3.15
2022-08-21T13:53:53.566Z,2.50
2022-08-21T13:56:29.853Z,2.13
2022-08-21T13:59:05.218Z,2.50
2022-08-21T14:01:55.789Z,2.58
2022-08-21T14:04:37.217Z,2.85
2022-08-21T14:07:19.246Z,2.70
2022-08-21T14:09:53.443Z,2.40
2022-08-21T14:12:30.828Z,2.80
2022-08-21T14:15:07.433Z,2.67
2022-08-21T14:17:43.883Z,2.60
2022-08-21T14:20:30.144Z,2.20
2022-08-21T14:23:04.745Z,2.33
2022-08-21T14:25:44.848Z,2.92
2022-08-21T14:28:27.110Z,2.60
2022-08-21T14:31:15.789Z,2.33
2022-08-21T14:33:51.669Z,2.58
2022-08-21T14:36:25.723Z,2.20
2022-08-21T14:38:59.676Z,2.05
2022-08-21T14:41:33.869Z,2.50
2022-08-21T14:44:09.806Z,2.10
2022-08-21T14:46:55.886Z,2.70
2022-08-21T14:49:32.937Z,2.47
2022-08-21T14:52:06.893Z,2.42
2022-08-21T14:54:40.977Z,2.67
2022-08-21T14:57:14.912Z,2.65
2022-08-21T14:59:49.358Z,2.42
2022-08-21T15:02:23.266Z,2.47
2022-08-21T15:04:58.650Z,2.40
2022-08-21T15:07:32.524Z,2.60
2022-08-21T15:10:07.617Z,2.35
2022-08-21T15:12:44.065Z,2.80
2022-08-21T15:15:18.219Z,2.60
2022-08-21T15:17:52.344Z,2.50
2022-08-21T15:20:28.032Z,2.20
2022-08-21T15:23:02.145Z,2.40
2022-08-21T15:25:36.610Z,2.30
2022-08-21T15:28:11.545Z,2.17
2022-08-21T15:30:47.413Z,2.65
2022-08-21T15:33:22.585Z,2.42
2022-08-21T15:35:58.200Z,2.53
2022-08-21T15:38:32.153Z,2.10
2022-08-21T15:41:06.652Z,2.28
2022-08-21T15:43:44.783Z,2.17
2022-08-21T15:46:20.939Z,1.90
2022-08-21T15:48:59.680Z,2.38
2022-08-21T15:51:35.998Z,2.50
2022-08-21T15:54:19.638Z,2.45
2022-08-21T15:56:54.226Z,2.05
2022-08-21T15:59:28.466Z,2.47
2022-08-21T16:02:02.605Z,2.00
2022-08-21T16:04:36.760Z,2.17
2022-08-21T16:07:12.518Z,2.10
2022-08-21T16:09:46.526Z,2.45
2022-08-21T16:12:25.192Z,2.13
2022-08-21T16:14:59.879Z,2.40
2022-08-21T16:17:35.750Z,2.35
2022-08-21T16:20:13.233Z,2.33
2022-08-21T16:22:48.693Z,2.28
2022-08-21T16:25:23.350Z,2.10
2022-08-21T16:28:02.453Z,2.00
2022-08-21T16:30:37.151Z,2.50
2022-08-21T16:33:17.585Z,2.30
2022-08-21T16:35:51.661Z,2.20
2022-08-21T16:38:27.921Z,2.03
2022-08-21T16:41:02.542Z,2.33
2022-08-21T16:43:41.684Z,2.28
2022-08-21T16:46:17.810Z,2.47
2022-08-21T16:48:51.891Z,2.33
2022-08-21T16:51:26.076Z,2.30
2022-08-21T16:54:01.679Z,2.15
2022-08-21T16:56:39.804Z,2.05
2022-08-21T16:59:14.953Z,2.42
2022-08-21T17:01:53.333Z,2.38
2022-08-21T17:04:28.653Z,2.47
2022-08-21T17:07:02.643Z,2.38
2022-08-21T17:09:38.030Z,2.60
2022-08-21T17:12:13.217Z,2.30
2022-08-21T17:14:47.328Z,2.30
2022-08-21T17:17:22.057Z,2.17
2022-08-21T17:19:55.955Z,2.20
2022-08-21T17:22:29.912Z,1.90
2022-08-21T17:25:05.761Z,2.58
2022-08-21T17:27:40.832Z,2.42
2022-08-21T17:30:15.848Z,2.00
2022-08-21T17:32:52.466Z,2.05
2022-08-21T17:35:26.738Z,2.13
2022-08-21T17:38:00.722Z,2.60
2022-08-21T17:40:37.198Z,2.10
2022-08-21T17:43:13.863Z,2.25
2022-08-21T17:45:48.052Z,2.15
2022-08-21T17:48:25.332Z,2.40
2022-08-21T17:50:59.671Z,2.33
2022-08-21T17:53:33.667Z,2.70
2022-08-21T17:56:09.509Z,2.35
2022-08-21T17:58:47.401Z,2.20
2022-08-21T18:01:21.772Z,2.38
2022-08-21T18:03:55.741Z,1.85
2022-08-21T18:06:30.155Z,2.10
2022-08-21T18:09:04.934Z,2.60
2022-08-21T18:11:43.307Z,2.30
2022-08-21T18:14:18.745Z,2.15
2022-08-21T18:16:52.740Z,2.17
2022-08-21T18:19:26.970Z,2.35
2022-08-21T18:22:04.537Z,2.25
2022-08-21T18:24:39.770Z,2.25
2022-08-21T18:27:16.298Z,1.95
2022-08-21T18:29:52.141Z,1.90
2022-08-21T18:32:31.002Z,1.83
2022-08-21T18:35:08.104Z,1.98
2022-08-21T18:37:45.691Z,2.30
2022-08-21T18:40:21.195Z,2.08
2022-08-21T18:42:56.666Z,2.38
2022-08-21T18:45:30.856Z,2.30
2022-08-21T18:48:09.583Z,2.17
2022-08-21T18:50:47.926Z,1.80
2022-08-21T18:53:24.175Z,1.75
2022-08-21T18:56:05.204Z,2.50
2022-08-21T18:58:42.788Z,2.55
2022-08-21T19:01:16.793Z,2.33
2022-08-21T19:03:52.050Z,2.10
2022-08-21T19:06:25.940Z,2.25
2022-08-21T19:09:02.098Z,2.00
2022-08-21T19:11:37.199Z,2.30
2022-08-21T19:14:19.094Z,2.03
2022-08-21T19:16:56.767Z,2.25
2022-08-21T19:19:30.739Z,1.90
2022-08-21T19:22:04.750Z,2.22
2022-08-21T19:24:38.698Z,2.03
2022-08-21T19:27:14.612Z,2.08
2022-08-21T19:29:50.628Z,2.30
2022-08-21T19:32:27.371Z,2.10
2022-08-21T19:35:01.661Z,2.15
2022-08-21T19:37:36.054Z,2.50
2022-08-21T19:40:11.398Z,2.20
2022-08-21T19:42:45.550Z,2.15
2022-08-21T19:45:21.781Z,2.40
2022-08-21T19:47:55.952Z,2.22
2022-08-21T19:50:33.195Z,2.58
2022-08-21T19:53:11.973Z,2.25
2022-08-21T19:55:48.299Z,2.20
2022-08-21T19:58:36.001Z,1.95
2022-08-21T20:01:16.459Z,1.88
2022-08-21T20:03:54.040Z,2.45
2022-08-21T20:06:29.002Z,2.10
2022-08-21T20:09:03.748Z,2.33
2022-08-21T20:11:44.521Z,2.67
2022-08-21T20:14:20.961Z,2.65
2022-08-21T20:17:08.340Z,2.80
2022-08-21T20:19:48.324Z,2.05
2022-08-21T20:22:26.344Z,2.40
2022-08-21T20:25:00.494Z,2.97
2022-08-21T20:33:05.597Z,2.30
2022-08-21T20:35:40.219Z,2.20
2022-08-21T20:38:14.140Z,2.45
2022-08-21T20:40:51.130Z,2.40
2022-08-21T20:43:25.566Z,2.45
2022-08-21T20:46:02.126Z,2.30
2022-08-21T20:48:49.522Z,2.03
2022-08-21T20:51:39.626Z,2.45
2022-08-21T20:54:21.859Z,2.70
2022-08-21T20:57:01.202Z,2.35
2022-08-21T20:59:48.310Z,2.10
2022-08-21T21:02:37.526Z,2.20
2022-08-21T21:05:17.713Z,2.08
2022-08-21T21:07:59.317Z,2.60
2022-08-21T21:10:39.573Z,2.17
2022-08-21T21:13:19.376Z,2.92
2022-08-21T21:15:57.092Z,2.35
2022-08-21T21:18:36.565Z,2.63
2022-08-21T21:21:21.896Z,2.35
2022-08-21T21:24:06.012Z,2.47
2022-08-21T21:26:48.824Z,2.60
2022-08-21T21:29:29.805Z,2.53
2022-08-21T21:32:06.504Z,2.78
2022-08-21T21:34:43.622Z,1.88
2022-08-21T21:37:26.000Z,2.50
2022-08-21T21:40:10.704Z,2.28
2022-08-21T21:42:54.669Z,2.40
2022-08-21T21:48:21.139Z,2.10
2022-08-21T21:54:05.643Z,2.70
2022-08-21T21:56:49.626Z,2.20
2022-08-21T21:59:38.580Z,2.33
2022-08-21T22:02:22.386Z,2.50
2022-08-21T22:05:05.097Z,2.28
2022-08-21T22:07:45.014Z,2.40
2022-08-21T22:10:32.072Z,2.47
2022-08-21T22:13:25.287Z,2.10
2022-08-21T22:18:44.973Z,2.35
2022-08-21T22:21:24.110Z,2.90
2022-08-21T22:24:05.470Z,2.20
2022-08-21T22:26:49.186Z,2.35
2022-08-21T22:29:43.216Z,2.30
2022-08-21T22:32:26.154Z,2.22
2022-08-21T22:38:01.984Z,2.30
2022-08-21T22:40:40.356Z,2.42
2022-08-21T22:43:21.238Z,2.28
2022-08-21T22:46:02.506Z,2.47
2022-08-21T22:48:39.533Z,2.40
2022-08-21T22:54:34.445Z,2.33
2022-08-21T22:57:11.484Z,2.10
2022-08-21T22:59:58.208Z,2.30
2022-08-21T23:02:39.131Z,2.60
2022-08-21T23:05:20.652Z,2.28
2022-08-21T23:07:55.628Z,2.30
2022-08-21T23:10:32.997Z,2.55
2022-08-21T23:13:10.229Z,1.98
2022-08-21T23:15:55.338Z,2.80
2022-08-21T23:18:51.114Z,2.20
2022-08-21T23:21:35.059Z,2.22
2022-08-21T23:24:38.324Z,2.90
2022-08-21T23:27:32.598Z,2.63
2022-08-21T23:30:15.421Z,2.40
2022-08-21T23:33:14.863Z,2.42
2022-08-21T23:36:16.557Z,2.30
2022-08-21T23:39:03.706Z,2.40
2022-08-21T23:41:51.288Z,2.83
2022-08-21T23:44:41.083Z,2.50
2022-08-21T23:47:27.969Z,2.50
2022-08-21T23:50:14.260Z,2.75
2022-08-21T23:56:08.518Z,2.47
2022-08-21T23:58:53.173Z,2.15
